Latest Weather Observations for Point Perpendicular

IDN60801

Issued at 9:23 am EDT Friday 9 December 2022 (issued every 10 minutes, with the page automatically refreshed every 10 minutes)

About weather observations | Map of weather stations | Latest weather observations for NSW | Other Formats
Station Details ID: 068151 Name: POINT PERPENDICULAR AWS Lat: -35.09 Lon: 150.80 Height: 85.0 m
Data from the previous 72 hours. | See also: Recent months at Point Perpendicular
Date/Time
EDT
Temp
°C
App
Temp
°C
Dew
Point
°C
Rel
Hum
%
Delta-T
°C
Wind Press
QNH
hPa
Press
MSL
hPa
Rain since
9am
mm
Dir  Spd
km/h
Gust
km/h
Spd
kts
Gust
kts
09/09:00am 14.2 8.5 2.8 46 5.1 SSW 22 35 12 19 1014.7 1014.4 0.0
09/08:30am 14.1 8.9 3.8 50 4.7 SSW 20 32 11 17 1014.6 1014.3 0.0
09/08:00am 13.8 8.8 3.6 50 4.6 SSW 19 28 10 15 1014.1 1013.8 0.0
09/07:30am 13.5 9.4 4.1 53 4.3 SW 15 30 8 16 1013.9 1013.6 0.0
09/07:00am 13.3 9.8 5.5 59 3.7 WSW 13 20 7 11 1013.4 1013.1 0.0
09/06:30am 13.3 10.6 3.9 53 4.3 WSW 7 15 4 8 1013.4 1013.1 0.0
09/06:00am 13.3 10.4 6.4 63 3.3 SW 11 15 6 8 1013.2 1012.9 0.0
09/05:30am 14.0 9.6 4.9 54 4.3 SSW 17 26 9 14 1012.6 1012.3 0.0
09/05:00am 14.0 9.1 5.1 55 4.2 SSW 20 32 11 17 1012.3 1012.0 0.0
09/04:30am 13.9 9.1 5.5 57 4.0 SSW 20 33 11 18 1012.2 1011.9 0.0
09/04:00am 14.1 8.9 5.7 57 4.0 SSW 22 32 12 17 1012.0 1011.7 0.0
09/03:30am 14.3 9.4 5.1 54 4.3 SSW 20 33 11 18 1011.9 1011.6 0.0
09/03:00am 14.4 8.9 5.7 56 4.2 SSW 24 37 13 20 1011.6 1011.3 0.0
09/02:30am 14.6 8.8 6.4 58 4.0 SSW 26 41 14 22 1011.5 1011.2 0.0
09/02:17am 14.6 8.2 5.1 53 4.5 SSW 28 46 15 25 1011.5 1011.2 0.0
09/02:00am 14.6 8.3 5.7 55 4.3 SSW 28 39 15 21 1011.6 1011.3 0.0
09/01:30am 14.7 8.3 7.0 60 3.8 SSW 30 43 16 23 1012.0 1011.7 0.0
09/01:00am 14.9 8.8 6.7 58 4.0 SSW 28 41 15 22 1012.0 1011.7 0.0
09/12:30am 15.2 8.5 5.7 53 4.6 SSW 30 50 16 27 1011.9 1011.6 0.0
09/12:18am 15.2 8.3 6.5 56 4.2 SSW 32 50 17 27 1011.6 1011.3 0.0
09/12:00am 15.3 8.2 6.6 56 4.3 SSW 33 48 18 26 1011.7 1011.4 0.0
 
Date/Time
EDT
Temp
°C
App
Temp
°C
Dew
Point
°C
Rel
Hum
%
Delta-T
°C
Wind Press
QNH
hPa
Press
MSL
hPa
Rain since
9am
mm
Dir  Spd
km/h
Gust
km/h
Spd
kts
Gust
kts
08/11:34pm 15.8 9.4 6.8 55 4.4 SSW 30 48 16 26 1011.5 1011.2 0.0
08/11:30pm 15.9 9.3 7.7 58 4.1 SSW 32 46 17 25 1011.4 1011.1 0.0
08/11:00pm 16.0 10.0 7.0 55 4.5 SSW 28 46 15 25 1011.4 1011.1 0.0
08/10:31pm 16.0 10.0 7.0 55 4.5 SSW 28 46 15 25 1011.3 1011.0 0.0
08/10:30pm 16.1 10.3 8.1 59 4.1 SSW 28 44 15 24 1011.5 1011.2 0.0
08/10:15pm 16.1 10.0 6.5 53 4.7 SSW 28 46 15 25 1011.5 1011.2 0.0
08/10:00pm 16.2 10.0 6.3 52 4.8 SSW 28 44 15 24 1011.4 1011.1 0.0
08/09:30pm 16.6 11.6 8.1 57 4.3 SSW 24 37 13 20 1010.6 1010.4 0.0
08/09:00pm 16.7 11.6 7.6 55 4.6 S 24 44 13 24 1010.1 1009.9 0.0
08/08:30pm 16.7 11.3 6.2 50 5.1 SSW 24 46 13 25 1009.5 1009.3 0.0
08/08:26pm 16.7 10.6 6.8 52 4.9 SSW 28 46 15 25 1009.5 1009.3 0.0
08/08:00pm 16.6 11.0 7.0 53 4.8 SSW 26 37 14 20 1009.4 1009.2 0.0
08/07:30pm 16.7 11.2 5.9 49 5.3 S 24 39 13 21 1008.8 1008.6 0.0
08/07:06pm 16.8 10.6 6.3 50 5.2 S 28 46 15 25 1008.4 1008.1 0.0
08/07:00pm 16.9 10.9 7.0 52 4.9 S 28 39 15 21 1008.2 1007.9 0.0
08/06:44pm 17.1 10.9 6.3 49 5.3 S 28 46 15 25 1007.8 1007.5 0.0
08/06:30pm 17.0 11.2 6.2 49 5.3 S 26 37 14 20 1007.5 1007.2 0.0
08/06:24pm 17.0 10.9 6.8 51 5.1 S 28 46 15 25 1007.5 1007.2 0.0
08/06:00pm 17.3 11.0 5.9 47 5.6 S 28 44 15 24 1007.0 1006.7 0.0
08/05:30pm 17.5 10.9 6.1 47 5.6 S 30 48 16 26 1007.0 1006.7 0.0
08/05:11pm 17.8 11.4 5.1 43 6.1 S 28 46 15 25 1006.6 1006.3 0.0
08/05:00pm 17.8 12.5 5.1 43 6.2 S 22 35 12 19 1006.5 1006.2 0.0
08/04:30pm 17.9 12.6 5.2 43 6.1 S 22 32 12 17 1007.1 1006.8 0.0
08/04:00pm 17.6 11.9 4.9 43 6.1 S 24 35 13 19 1006.9 1006.6 0.0
08/03:30pm 16.7 11.3 4.7 45 5.7 S 22 33 12 18 1006.9 1006.6 0.0
08/03:00pm 16.4 11.6 5.4 48 5.3 S 20 33 11 18 1006.5 1006.2 0.0
08/02:30pm 16.5 9.9 4.2 44 5.8 SSW 28 41 15 22 1006.4 1006.1 0.0
08/02:00pm 16.3 9.6 3.7 43 5.9 SSW 28 39 15 21 1006.3 1006.0 0.0
08/01:30pm 16.4 10.2 2.4 39 6.3 SSW 24 37 13 20 1005.9 1005.6 0.0
08/01:00pm 16.5 9.9 4.2 44 5.8 SSW 28 46 15 25 1005.7 1005.4 0.0
08/12:55pm 16.6 10.1 4.9 46 5.6 SSW 28 46 15 25 1005.7 1005.4 0.0
08/12:30pm 16.9 10.8 4.6 44 5.8 SSW 26 39 14 21 1005.8 1005.5 0.0
08/12:00pm 16.7 11.4 3.1 40 6.3 SSW 20 32 11 17 1006.0 1005.7 0.0
08/11:30am 16.5 10.7 4.5 45 5.7 SSW 24 41 13 22 1005.9 1005.6 0.0
08/11:00am 16.1 11.3 8.8 62 3.8 SSW 24 33 13 18 1006.3 1006.0 0.0
08/10:30am 16.6 11.5 7.5 55 4.6 SSW 24 35 13 19 1006.2 1005.9 0.0
08/10:00am 15.8 10.1 6.8 55 4.4 SSW 26 37 14 20 1005.9 1005.6 0.0
08/09:30am 15.3 9.8 7.6 60 3.8 SSW 26 39 14 21 1005.8 1005.5 0.0
08/09:00am 15.2 9.8 8.2 63 3.5 SSW 26 39 14 21 1005.9 1005.6 0.0
08/08:30am 14.9 9.6 7.0 59 3.9 SSW 24 41 13 22 1005.7 1005.4 0.0
08/08:00am 14.4 8.7 6.5 59 3.8 S 26 43 14 23 1005.3 1005.0 0.0
08/07:30am 14.4 8.9 7.5 63 3.4 S 26 48 14 26 1004.7 1004.4 0.0
08/07:22am 14.2 8.0 6.3 59 3.8 SSW 28 48 15 26 1004.7 1004.4 0.0
08/07:00am 14.6 8.7 7.6 63 3.5 SSW 28 41 15 22 1004.6 1004.3 0.0
08/06:30am 14.9 10.3 9.7 71 2.7 SSW 24 37 13 20 1004.0 1003.7 0.0
08/06:00am 14.9 8.9 10.1 73 2.5 SSW 32 46 17 25 1003.5 1003.2 0.0
08/05:40am 15.6 10.7 11.4 76 2.3 SSW 28 48 15 26 1003.1 1002.8 0.0
08/05:30am 15.5 11.7 11.3 76 2.3 SSW 22 33 12 18 1003.0 1002.7 0.0
08/05:00am 15.2 10.0 11.6 79 2.0 SSW 30 46 16 25 1002.5 1002.2 0.0
08/04:30am 15.3 9.6 11.9 80 1.8 SSW 33 48 18 26 1002.1 1001.8 0.0
08/04:00am 16.0 11.5 12.7 81 1.8 SSW 28 44 15 24 1002.0 1001.7 0.0
08/03:30am 16.4 12.1 13.3 82 1.7 SSW 28 46 15 25 1001.8 1001.5 0.0
08/03:23am 16.4 12.3 13.7 84 1.5 SSW 28 46 15 25 1001.6 1001.3 0.0
08/03:00am 16.8 14.0 14.4 86 1.4 SSW 22 32 12 17 1001.8 1001.5 0.0
08/02:30am 16.8 15.9 14.8 88 1.2 SSW 13 22 7 12 1001.7 1001.4 0.0
08/02:00am 16.4 13.8 14.8 90 0.9 SSW 22 41 12 22 1001.9 1001.6 0.0
08/01:40am 17.2 13.4 14.7 85 1.4 SSW 28 46 15 25 1002.2 1001.9 0.0
08/01:30am 17.1 13.4 14.0 82 1.8 SSW 26 41 14 22 1001.4 1001.1 0.0
08/01:00am 17.6 15.5 15.2 86 1.4 SW 20 37 11 20 1002.0 1001.7 0.0
08/12:30am 17.8 14.9 15.2 85 1.5 SW 24 37 13 20 1001.9 1001.6 0.0
08/12:00am 20.1 17.5 12.1 60 4.5 SW 17 24 9 13 1002.2 1001.9 0.0
 
Date/Time
EDT
Temp
°C
App
Temp
°C
Dew
Point
°C
Rel
Hum
%
Delta-T
°C
Wind Press
QNH
hPa
Press
MSL
hPa
Rain since
9am
mm
Dir  Spd
km/h
Gust
km/h
Spd
kts
Gust
kts
07/11:30pm 20.0 18.4 12.7 63 4.1 WNW 13 24 7 13 1001.5 1001.2 0.0
07/11:00pm 20.2 18.4 12.2 60 4.5 WNW 13 20 7 11 1000.9 1000.6 0.0
07/10:30pm 20.5 17.7 11.4 56 5.0 WNW 17 28 9 15 1000.5 1000.2 0.0
07/10:00pm 20.8 18.7 11.2 54 5.3 WNW 13 30 7 16 1000.5 1000.2 0.0
07/09:30pm 21.1 18.1 10.6 51 5.8 NW 17 30 9 16 1000.2 999.9 0.0
07/09:00pm 21.9 17.8 8.8 43 7.0 NW 20 35 11 19 1000.0 999.7 0.0
07/08:30pm 22.0 18.8 8.5 42 7.2 NW 15 24 8 13 1000.5 1000.2 0.0
07/08:00pm 22.5 20.1 8.6 41 7.4 NW 11 22 6 12 1000.5 1000.2 0.0
07/07:30pm 22.9 19.4 8.6 40 7.6 NW 17 26 9 14 1000.8 1000.5 0.0
07/07:00pm 22.9 18.9 8.2 39 7.8 NW 19 28 10 15 1000.3 1000.0 0.0
07/06:30pm 23.2 20.3 8.1 38 8.0 NW 13 20 7 11 1000.5 1000.2 0.0
07/06:00pm 23.8 19.6 7.4 35 8.7 NW 19 26 10 14 1000.5 1000.2 0.0
07/05:30pm 24.4 21.0 7.5 34 8.9 WNW 15 26 8 14 1000.4 1000.1 0.0
07/05:00pm 24.5 21.6 8.0 35 8.8 NW 13 22 7 12 1000.5 1000.2 0.0
07/04:30pm 21.0 22.1 17.2 79 2.3 NE 7 15 4 8 1000.6 1000.3 0.0
07/04:00pm 21.9 21.7 17.5 76 2.7 NE 15 24 8 13 1001.3 1001.0 0.0
07/03:30pm 22.5 21.2 16.8 70 3.5 NE 19 24 10 13 1001.8 1001.5 0.0
07/03:00pm 22.0 20.5 16.7 72 3.3 NNE 20 28 11 15 1001.9 1001.6 0.0
07/02:30pm 21.9 19.9 15.5 67 3.8 NE 20 28 11 15 1002.4 1002.1 0.0
07/02:00pm 22.1 19.2 15.2 65 4.1 NE 24 33 13 18 1002.9 1002.6 0.0
07/01:30pm 22.2 18.9 14.1 60 4.7 NNE 24 33 13 18 1003.2 1002.9 0.0
07/01:00pm 22.9 19.3 14.2 58 5.1 NNE 26 32 14 17 1003.7 1003.4 0.0
07/12:30pm 23.4 20.7 13.6 54 5.7 NNE 20 30 11 16 1003.6 1003.3 0.0
07/12:00pm 24.1 22.0 14.8 56 5.6 NE 19 26 10 14 1003.9 1003.6 0.0
07/11:30am 23.5 21.7 13.4 53 5.9 NE 15 22 8 12 1004.1 1003.8 0.0
07/11:00am 21.8 20.9 14.9 65 4.1 NE 13 20 7 11 1004.3 1004.0 0.0
07/10:30am 21.5 19.6 12.9 58 4.9 NNE 15 22 8 12 1004.8 1004.5 0.0
07/10:00am 20.4 18.6 12.1 59 4.7 N 13 22 7 12 1005.1 1004.8 0.0
07/09:30am 20.4 19.5 12.6 61 4.4 N 9 17 5 9 1004.9 1004.6 0.0
07/09:00am 19.5 19.0 13.9 70 3.2 N 9 13 5 7 1005.4 1005.1 0.0
07/08:30am 18.4 17.7 13.1 71 3.0 N 9 13 5 7 1005.6 1005.3 0.0
07/08:00am 18.0 16.5 13.1 73 2.8 NNW 13 19 7 10 1005.6 1005.3 0.0
07/07:30am 17.3 16.6 14.2 82 1.8 NNW 11 17 6 9 1005.4 1005.1 0.0
07/07:00am 16.4 16.0 14.2 87 1.3 NNW 9 13 5 7 1005.4 1005.1 0.0
07/06:30am 15.9 15.3 13.6 86 1.3 NNW 9 13 5 7 1005.6 1005.3 0.0
07/06:00am 15.2 13.8 13.4 89 1.0 N 13 19 7 10 1005.7 1005.4 0.0
07/05:30am 15.0 13.6 13.4 90 0.9 NNE 13 15 7 8 1005.6 1005.3 0.0
07/05:00am 14.9 13.9 13.3 90 0.9 NNE 11 13 6 7 1005.6 1005.3 0.0
07/04:30am 14.8 13.8 13.3 91 0.8 NNE 11 13 6 7 1005.6 1005.3 0.0
07/04:00am 14.6 13.5 13.0 90 0.9 NNE 11 15 6 8 1005.9 1005.6 0.0
07/03:30am 14.9 14.2 13.3 90 0.9 NE 9 11 5 6 1006.1 1005.8 0.0
07/03:00am 15.0 15.2 13.0 88 1.1 NE 4 6 2 3 1006.7 1006.4 0.0
07/02:30am 15.5 16.2 13.3 87 1.2 NNE 2 4 1 2 1007.2 1006.9 0.0
07/02:00am 15.7 16.4 13.4 86 1.3 NNE 2 4 1 2 1007.6 1007.3 0.0
07/01:30am 15.8 16.1 13.5 86 1.3 NW 4 7 2 4 1008.0 1007.7 0.0
07/01:00am 16.2 16.4 13.1 82 1.7 ENE 4 7 2 4 1008.0 1007.7 0.0
07/12:30am 16.1 15.9 13.0 82 1.7 E 6 6 3 3 1008.4 1008.1 0.0
07/12:00am 16.0 16.5 12.7 81 1.8 ESE 2 4 1 2 1009.1 1008.9 0.0
 
Date/Time
EDT
Temp
°C
App
Temp
°C
Dew
Point
°C
Rel
Hum
%
Delta-T
°C
Wind Press
QNH
hPa
Press
MSL
hPa
Rain since
9am
mm
Dir  Spd
km/h
Gust
km/h
Spd
kts
Gust
kts
06/11:30pm 16.0 16.2 12.9 82 1.7 ESE 4 7 2 4 1009.3 1009.1 0.0
06/11:00pm 16.0 16.5 12.7 81 1.8 SSW 2 4 1 2 1009.6 1009.4 0.0
06/10:30pm 15.8 15.5 13.3 85 1.4 S 7 13 4 7 1009.3 1009.1 0.0
06/10:00pm 15.8 15.4 12.5 81 1.8 SE 6 11 3 6 1009.4 1009.2 0.0
06/09:30pm 16.2 15.9 12.6 79 2.0 S 6 11 3 6 1009.4 1009.2 0.0
06/09:00pm 16.9 15.6 12.6 76 2.4 SSE 11 17 6 9 1008.9 1008.7 0.0
06/08:30pm 16.9 15.7 11.6 71 2.9 SSE 9 15 5 8 1008.7 1008.4 0.0
06/08:00pm 16.9 15.4 12.0 73 2.7 SSE 11 17 6 9 1008.4 1008.1 0.0
06/07:30pm 17.0 15.6 12.1 73 2.7 SSE 11 17 6 9 1008.1 1007.8 0.0
06/07:00pm 17.1 15.7 12.2 73 2.7 SSE 11 19 6 10 1007.9 1007.6 0.0
06/06:30pm 17.2 15.2 12.7 75 2.5 SSE 15 20 8 11 1007.3 1007.0 0.0
06/06:00pm 17.2 14.7 12.3 73 2.7 SSE 17 24 9 13 1007.1 1006.8 0.0
06/05:30pm 17.6 15.1 12.3 71 2.9 SSE 17 24 9 13 1006.8 1006.5 0.0
06/05:00pm 18.7 16.0 12.9 69 3.3 SSE 19 28 10 15 1006.7 1006.4 0.0
06/04:30pm 18.7 15.8 12.9 69 3.3 SSE 20 28 11 15 1006.7 1006.4 0.0
06/04:00pm 18.0 15.1 12.2 69 3.2 S 19 26 10 14 1006.6 1006.3 0.0
06/03:30pm 18.4 15.3 13.3 72 2.9 S 22 33 12 18 1006.6 1006.3 0.0
06/03:00pm 18.6 15.4 13.0 70 3.2 S 22 33 12 18 1006.8 1006.5 0.0
06/02:30pm 19.1 16.0 13.3 69 3.3 S 22 30 12 16 1006.9 1006.6 0.0
06/02:00pm 18.9 14.9 11.9 64 3.9 S 24 35 13 19 1007.0 1006.7 0.0
06/01:30pm 18.8 15.7 12.3 66 3.6 SSE 20 28 11 15 1007.2 1006.9 0.0
06/01:00pm 18.9 16.5 12.6 67 3.5 SSE 17 28 9 15 1007.5 1007.2 0.0
06/12:30pm 19.3 16.9 13.7 70 3.2 SSE 19 28 10 15 1007.6 1007.3 0.0
06/12:00pm 18.9 16.5 13.7 72 3.0 S 19 26 10 14 1007.9 1007.6 0.0
06/11:30am 18.8 16.1 13.4 71 3.1 S 20 30 11 16 1008.0 1007.7 0.0
06/11:00am 18.6 15.7 13.0 70 3.2 S 20 26 11 14 1008.1 1007.8 0.0
06/10:30am 19.0 16.9 13.6 71 3.1 S 17 26 9 14 1008.1 1007.8 0.0
06/10:00am 18.3 14.9 11.4 64 3.8 SSW 20 30 11 16 1008.0 1007.7 0.0
06/09:30am 18.2 15.8 13.9 76 2.5 SSW 19 24 10 13 1008.0 1007.7 0.0

Other formats

Comma delimited format used in spreadsheet applications
http://www.bom.gov.au/fwo/IDN60801/IDN60801.95940.axf

JavaScript Object Notation format (JSON) in row-major order
http://www.bom.gov.au/fwo/IDN60801/IDN60801.95940.json

Data quality

Most of these data are generated automatically and are frequently updated. Quality checks on data are not normally performed. It is possible for incorrect values to appear. Refer to information at About Latest Weather Observations and please check the disclaimer before using these data.